createdAt,value
2022-11-15T00:01:09.986Z,11.32
2022-11-15T00:03:36.886Z,11.10
2022-11-15T00:06:05.500Z,10.55
2022-11-15T00:08:33.282Z,11.15
2022-11-15T00:11:02.468Z,11.48
2022-11-15T00:13:30.637Z,11.77
2022-11-15T00:15:59.920Z,10.98
2022-11-15T00:18:27.521Z,11.20
2022-11-15T00:20:54.457Z,10.68
2022-11-15T00:23:21.425Z,11.25
2022-11-15T00:25:48.276Z,10.85
2022-11-15T00:28:15.100Z,11.23
2022-11-15T00:30:42.307Z,10.18
2022-11-15T00:33:10.120Z,11.00
2022-11-15T00:35:37.021Z,10.52
2022-11-15T00:38:03.925Z,11.73
2022-11-15T00:40:31.321Z,10.65
2022-11-15T00:42:58.560Z,11.00
2022-11-15T00:45:25.951Z,10.40
2022-11-15T00:47:53.593Z,10.38
2022-11-15T00:50:20.735Z,9.95
2022-11-15T00:52:47.604Z,10.05
2022-11-15T00:55:16.415Z,10.20
2022-11-15T00:57:43.304Z,10.45
2022-11-15T01:00:11.008Z,10.07
2022-11-15T01:02:37.953Z,10.85
2022-11-15T01:05:05.240Z,10.15
2022-11-15T01:07:32.242Z,9.75
2022-11-15T01:09:59.140Z,10.13
2022-11-15T01:12:25.988Z,9.57
2022-11-15T01:14:53.676Z,8.93
2022-11-15T01:17:20.892Z,9.00
2022-11-15T01:19:47.734Z,8.80
2022-11-15T01:22:14.584Z,9.52
2022-11-15T01:24:41.421Z,9.25
2022-11-15T01:27:08.603Z,8.80
2022-11-15T01:29:35.450Z,9.18
2022-11-15T01:32:02.489Z,8.27
2022-11-15T01:34:29.512Z,8.88
2022-11-15T01:36:56.363Z,8.05
2022-11-15T01:39:23.188Z,8.20
2022-11-15T01:41:50.049Z,7.80
2022-11-15T01:44:32.368Z,7.85
2022-11-15T01:47:02.523Z,8.27
2022-11-15T01:49:33.721Z,7.93
2022-11-15T01:54:29.940Z,7.78
2022-11-15T01:57:05.554Z,7.97
2022-11-15T01:59:32.754Z,7.30
2022-11-15T02:01:59.744Z,7.78
2022-11-15T02:04:30.673Z,7.53
2022-11-15T02:06:57.624Z,7.63
2022-11-15T02:09:24.733Z,7.45
2022-11-15T02:11:54.987Z,7.05
2022-11-15T02:14:23.402Z,7.17
2022-11-15T02:16:56.743Z,6.65
2022-11-15T02:19:23.554Z,7.22
2022-11-15T02:22:03.346Z,7.07
2022-11-15T02:24:35.780Z,6.28
2022-11-15T02:27:33.157Z,6.38
2022-11-15T02:30:21.636Z,6.82
2022-11-15T02:32:54.162Z,6.35
2022-11-15T02:35:41.188Z,6.15
2022-11-15T02:38:22.067Z,6.07
2022-11-15T02:41:24.258Z,6.60
2022-11-15T02:43:59.994Z,6.38
2022-11-15T02:47:10.088Z,6.13
2022-11-15T02:49:39.018Z,5.93
2022-11-15T02:52:05.842Z,5.53
2022-11-15T02:54:34.841Z,5.68
2022-11-15T02:57:15.572Z,6.00
2022-11-15T02:59:45.107Z,5.57
2022-11-15T03:02:23.970Z,5.60
2022-11-15T03:05:03.352Z,5.18
2022-11-15T03:07:30.514Z,5.75
2022-11-15T03:10:10.399Z,5.45
2022-11-15T03:12:50.718Z,5.38
2022-11-15T03:15:25.888Z,5.30
2022-11-15T03:18:06.169Z,5.10
2022-11-15T03:20:34.292Z,5.53
2022-11-15T03:23:11.577Z,4.90
2022-11-15T03:25:44.778Z,5.47
2022-11-15T03:28:16.896Z,4.97
2022-11-15T03:30:45.362Z,4.70
2022-11-15T03:33:12.802Z,4.78
2022-11-15T03:35:44.546Z,4.90
2022-11-15T03:38:27.362Z,5.00
2022-11-15T03:41:01.450Z,4.75
2022-11-15T03:44:04.289Z,4.93
2022-11-15T03:46:40.839Z,5.03
2022-11-15T03:49:26.101Z,5.15
2022-11-15T03:51:53.134Z,5.45
2022-11-15T03:54:19.939Z,4.80
2022-11-15T03:56:46.768Z,5.85
2022-11-15T03:59:13.626Z,5.72
2022-11-15T04:01:40.559Z,5.53
2022-11-15T04:04:07.500Z,5.35
2022-11-15T04:06:35.314Z,5.45
2022-11-15T04:09:02.204Z,5.32
2022-11-15T04:11:29.002Z,5.55
2022-11-15T04:13:55.890Z,4.93
2022-11-15T04:16:22.724Z,5.28
2022-11-15T04:19:09.468Z,4.97
2022-11-15T04:21:55.039Z,5.25
2022-11-15T04:24:21.840Z,4.78
2022-11-15T04:26:48.734Z,5.05
2022-11-15T04:29:44.803Z,5.40
2022-11-15T04:32:11.666Z,5.55
2022-11-15T04:34:39.689Z,5.32
2022-11-15T04:37:12.905Z,5.53
2022-11-15T04:39:43.542Z,5.22
2022-11-15T04:42:11.209Z,5.53
2022-11-15T04:44:38.151Z,4.93
2022-11-15T04:47:05.667Z,5.05
2022-11-15T04:49:32.633Z,5.05
2022-11-15T04:51:59.612Z,4.88
2022-11-15T04:54:26.463Z,5.35
2022-11-15T04:56:53.253Z,5.10
2022-11-15T04:59:20.165Z,4.88
2022-11-15T05:01:46.998Z,4.22
2022-11-15T05:04:20.220Z,5.20
2022-11-15T05:06:52.172Z,5.13
2022-11-15T05:09:20.828Z,4.90
2022-11-15T05:11:48.587Z,4.75
2022-11-15T05:14:16.068Z,4.43
2022-11-15T05:16:43.116Z,4.75
2022-11-15T05:19:10.382Z,4.93
2022-11-15T05:21:37.409Z,4.78
2022-11-15T05:24:04.671Z,4.63
2022-11-15T05:26:31.843Z,4.55
2022-11-15T05:29:00.488Z,4.43
2022-11-15T05:31:28.533Z,4.65
2022-11-15T05:33:57.410Z,4.20
2022-11-15T05:36:39.255Z,4.43
2022-11-15T05:39:09.311Z,4.43
2022-11-15T05:41:54.110Z,4.67
2022-11-15T05:44:23.870Z,4.90
2022-11-15T05:46:54.988Z,4.43
2022-11-15T05:51:51.381Z,4.40
2022-11-15T05:54:20.022Z,3.80
2022-11-15T05:56:47.374Z,3.97
2022-11-15T05:59:14.635Z,3.58
2022-11-15T06:01:41.972Z,3.72
2022-11-15T06:04:08.814Z,3.47
2022-11-15T06:06:35.719Z,3.80
2022-11-15T06:09:02.579Z,3.80
2022-11-15T06:11:29.488Z,4.20
2022-11-15T06:13:57.647Z,3.63
2022-11-15T06:16:24.571Z,3.65
2022-11-15T06:18:51.478Z,3.53
2022-11-15T06:21:18.389Z,3.72
2022-11-15T06:23:45.186Z,3.70
2022-11-15T06:26:12.127Z,4.25
2022-11-15T06:28:39.077Z,3.53
2022-11-15T06:31:08.797Z,3.20
2022-11-15T06:33:36.151Z,4.30
2022-11-15T06:36:11.880Z,3.65
2022-11-15T06:38:41.440Z,6.20
2022-11-15T06:41:10.665Z,4.50
2022-11-15T06:43:38.382Z,4.05
2022-11-15T06:46:06.750Z,3.70
2022-11-15T06:48:34.963Z,3.95
2022-11-15T06:51:03.836Z,3.92
2022-11-15T06:53:31.774Z,3.90
2022-11-15T06:56:03.999Z,3.83
2022-11-15T06:58:30.957Z,3.15
2022-11-15T07:01:15.885Z,3.45
2022-11-15T07:03:44.139Z,3.28
2022-11-15T07:06:11.721Z,4.18
2022-11-15T07:08:39.320Z,3.60
2022-11-15T07:11:08.801Z,3.60
2022-11-15T07:13:37.399Z,3.47
2022-11-15T07:16:06.919Z,3.60
2022-11-15T07:18:40.977Z,3.25
2022-11-15T07:21:11.008Z,3.67
2022-11-15T07:23:41.892Z,3.60
2022-11-15T07:26:09.594Z,4.95
2022-11-15T07:28:37.257Z,4.85
2022-11-15T07:31:05.548Z,4.35
2022-11-15T07:33:33.288Z,3.50
2022-11-15T07:36:06.114Z,3.50
2022-11-15T07:38:39.562Z,3.40
2022-11-15T07:41:09.317Z,3.70
2022-11-15T07:43:36.732Z,3.78
2022-11-15T07:46:10.623Z,3.42
2022-11-15T07:48:44.375Z,3.50
2022-11-15T07:51:16.396Z,2.75
2022-11-15T07:53:44.810Z,3.40
2022-11-15T07:56:13.046Z,3.00
2022-11-15T07:58:40.113Z,2.90
2022-11-15T08:01:08.808Z,3.13
2022-11-15T08:03:36.576Z,2.65
2022-11-15T08:06:04.211Z,3.00
2022-11-15T08:08:31.368Z,2.92
2022-11-15T08:11:02.012Z,3.00
2022-11-15T08:13:29.749Z,2.63
2022-11-15T08:16:01.410Z,3.10
2022-11-15T08:18:28.824Z,2.80
2022-11-15T08:21:00.934Z,2.80
2022-11-15T08:23:28.203Z,3.10
2022-11-15T08:26:00.929Z,2.90
2022-11-15T08:28:28.058Z,2.90
2022-11-15T08:30:55.095Z,3.38
2022-11-15T08:33:22.088Z,3.05
2022-11-15T08:35:49.960Z,3.35
2022-11-15T08:38:16.915Z,3.20
2022-11-15T08:40:43.909Z,3.50
2022-11-15T08:43:10.954Z,3.22
2022-11-15T08:45:37.857Z,3.53
2022-11-15T08:48:07.854Z,3.25
2022-11-15T08:50:34.752Z,3.70
2022-11-15T08:53:09.843Z,3.53
2022-11-15T08:55:40.863Z,3.80
2022-11-15T08:58:08.288Z,3.20
2022-11-15T09:00:35.288Z,3.10
2022-11-15T09:03:06.037Z,3.55
2022-11-15T09:05:33.583Z,4.20
2022-11-15T09:08:00.833Z,3.38
2022-11-15T09:10:29.206Z,3.95
2022-11-15T09:12:58.959Z,3.70
2022-11-15T09:15:26.554Z,3.92
2022-11-15T09:17:53.809Z,3.67
2022-11-15T09:20:20.804Z,3.38
2022-11-15T09:22:47.718Z,3.80
2022-11-15T09:25:15.051Z,3.67
2022-11-15T09:27:42.274Z,3.25
2022-11-15T09:30:09.627Z,3.70
2022-11-15T09:32:39.418Z,4.10
2022-11-15T09:35:07.452Z,3.85
2022-11-15T09:37:36.386Z,3.80
2022-11-15T09:40:05.467Z,4.00
2022-11-15T09:42:46.885Z,3.80
2022-11-15T09:45:42.400Z,3.97
2022-11-15T09:48:32.772Z,3.95
2022-11-15T09:51:00.408Z,3.30
2022-11-15T09:56:42.166Z,3.38
2022-11-15T09:59:21.275Z,3.47
2022-11-15T10:02:06.423Z,3.35
2022-11-15T10:04:51.468Z,2.92
2022-11-15T10:08:05.979Z,3.17
2022-11-15T10:10:39.328Z,2.75
2022-11-15T10:13:13.811Z,3.05
2022-11-15T10:15:47.178Z,3.40
2022-11-15T10:18:23.120Z,2.90
2022-11-15T10:20:54.001Z,3.08
2022-11-15T10:23:23.416Z,2.60
2022-11-15T10:25:54.608Z,2.90
2022-11-15T10:30:59.622Z,3.03
2022-11-15T10:33:29.480Z,2.75
2022-11-15T10:36:14.655Z,3.00
2022-11-15T10:39:15.570Z,2.42
2022-11-15T10:41:43.885Z,2.70
2022-11-15T10:44:30.229Z,2.85
2022-11-15T10:46:57.713Z,2.70
2022-11-15T10:49:35.335Z,2.80
2022-11-15T10:52:23.709Z,2.85
2022-11-15T10:55:13.409Z,2.88
2022-11-15T10:57:41.850Z,2.92
2022-11-15T11:00:30.100Z,2.42
2022-11-15T11:02:57.270Z,2.33
2022-11-15T11:05:27.423Z,2.15
2022-11-15T11:08:17.370Z,2.22
2022-11-15T11:11:13.837Z,2.15
2022-11-15T11:13:41.775Z,2.42
2022-11-15T11:16:17.669Z,2.47
2022-11-15T11:19:15.666Z,2.20
2022-11-15T11:22:04.399Z,2.42
2022-11-15T11:25:08.580Z,2.50
2022-11-15T11:27:41.854Z,2.10
2022-11-15T11:30:20.141Z,2.10
2022-11-15T11:33:06.928Z,2.45
2022-11-15T11:36:05.137Z,2.17
2022-11-15T11:38:56.156Z,2.00
2022-11-15T11:41:48.286Z,1.77
2022-11-15T11:44:46.983Z,2.33
2022-11-15T11:47:21.771Z,2.00
2022-11-15T11:50:15.691Z,1.95
2022-11-15T11:53:04.244Z,1.50
2022-11-15T11:55:39.208Z,2.10
2022-11-15T11:58:45.295Z,1.95
2022-11-15T12:01:28.159Z,2.30
2022-11-15T12:04:03.857Z,2.30
2022-11-15T12:06:41.844Z,2.22
2022-11-15T12:09:37.270Z,2.28
2022-11-15T12:12:22.502Z,1.80
2022-11-15T12:14:51.999Z,1.70
2022-11-15T12:17:26.070Z,2.20
2022-11-15T12:19:57.639Z,1.90
2022-11-15T12:22:37.319Z,1.60
2022-11-15T12:25:08.232Z,1.83
2022-11-15T12:27:43.978Z,1.38
2022-11-15T12:30:17.073Z,1.70
2022-11-15T12:32:57.941Z,1.38
2022-11-15T12:35:39.158Z,1.70
2022-11-15T12:40:36.950Z,1.27
2022-11-15T12:43:04.141Z,2.25
2022-11-15T12:45:41.068Z,1.30
2022-11-15T12:48:17.098Z,1.08
2022-11-15T12:50:54.800Z,1.40
2022-11-15T12:53:24.880Z,1.20
2022-11-15T12:56:10.575Z,1.13
2022-11-15T12:58:56.041Z,0.95
2022-11-15T13:01:32.440Z,1.08
2022-11-15T13:04:21.649Z,1.17
2022-11-15T13:06:50.034Z,1.08
2022-11-15T13:09:35.667Z,1.00
2022-11-15T13:12:03.288Z,0.82
2022-11-15T13:14:40.678Z,0.80
2022-11-15T13:17:43.829Z,0.82
2022-11-15T13:20:32.126Z,0.85
2022-11-15T13:23:04.213Z,0.98
2022-11-15T13:25:37.384Z,0.90
2022-11-15T13:28:17.836Z,0.70
2022-11-15T13:30:48.031Z,1.00
2022-11-15T13:33:19.467Z,1.00
2022-11-15T13:35:56.996Z,0.57
2022-11-15T13:38:31.156Z,0.60
2022-11-15T13:41:00.038Z,0.70
2022-11-15T13:43:29.614Z,0.70
2022-11-15T13:46:38.983Z,0.65
2022-11-15T13:49:09.828Z,0.70
2022-11-15T13:51:53.645Z,0.70
2022-11-15T13:54:45.627Z,0.50
2022-11-15T13:57:30.408Z,0.50
2022-11-15T14:00:07.198Z,0.50
2022-11-15T14:02:36.739Z,0.68
2022-11-15T14:05:18.164Z,0.47
2022-11-15T14:08:20.993Z,0.50
2022-11-15T14:10:48.261Z,0.40
2022-11-15T14:13:32.718Z,0.60
2022-11-15T14:16:18.652Z,0.50
2022-11-15T14:18:51.598Z,0.57
2022-11-15T14:21:20.221Z,0.40
2022-11-15T14:23:47.606Z,0.50
2022-11-15T14:26:30.138Z,0.50
2022-11-15T14:28:57.420Z,0.45
2022-11-15T14:31:24.611Z,0.60
2022-11-15T14:33:51.781Z,0.60
2022-11-15T14:36:21.450Z,0.60
2022-11-15T14:38:49.206Z,0.40
2022-11-15T14:41:24.690Z,0.55
2022-11-15T14:43:53.515Z,0.60
2022-11-15T14:46:20.581Z,0.60
2022-11-15T14:48:47.671Z,0.63
2022-11-15T14:51:17.980Z,1.15
2022-11-15T14:53:46.873Z,0.63
2022-11-15T14:56:14.560Z,0.40
2022-11-15T14:58:42.134Z,0.50
2022-11-15T15:01:27.469Z,0.30
2022-11-15T15:04:00.705Z,0.40
2022-11-15T15:06:28.424Z,0.35
2022-11-15T15:08:55.746Z,0.30
2022-11-15T15:11:25.690Z,0.40
2022-11-15T15:13:54.072Z,0.38
2022-11-15T15:16:21.319Z,0.50
2022-11-15T15:18:49.210Z,0.30
2022-11-15T15:21:33.744Z,0.30
2022-11-15T15:24:04.705Z,2.53
2022-11-15T15:26:35.024Z,2.67
2022-11-15T15:29:02.104Z,1.10
2022-11-15T15:31:29.321Z,0.88
2022-11-15T15:33:56.473Z,0.75
2022-11-15T15:36:23.569Z,0.90
2022-11-15T15:38:51.043Z,1.50
2022-11-15T15:41:18.496Z,1.55
2022-11-15T15:43:46.287Z,1.10
2022-11-15T15:46:17.736Z,1.88
2022-11-15T15:48:45.592Z,1.80
2022-11-15T15:51:18.766Z,1.38
2022-11-15T15:53:50.580Z,1.40
2022-11-15T15:56:17.769Z,1.23
2022-11-15T15:58:44.758Z,0.93
2022-11-15T16:01:11.918Z,1.20
2022-11-15T16:03:39.242Z,1.40
2022-11-15T16:06:06.874Z,1.35
2022-11-15T16:08:53.340Z,1.13
2022-11-15T16:11:21.258Z,1.65
2022-11-15T16:13:48.289Z,1.20
2022-11-15T16:16:15.559Z,1.20
2022-11-15T16:18:42.856Z,1.20
2022-11-15T16:21:10.572Z,1.55
2022-11-15T16:23:37.691Z,1.58
2022-11-15T16:26:25.566Z,1.30
2022-11-15T16:28:53.069Z,1.00
2022-11-15T16:31:22.587Z,1.15
2022-11-15T16:33:50.151Z,1.00
2022-11-15T16:36:31.323Z,0.90
2022-11-15T16:39:01.365Z,1.20
2022-11-15T16:41:29.050Z,1.05
2022-11-15T16:43:56.409Z,0.93
2022-11-15T16:46:26.472Z,1.00
2022-11-15T16:48:55.342Z,0.80
2022-11-15T16:51:23.166Z,1.30
2022-11-15T16:53:50.882Z,0.80
2022-11-15T16:56:31.000Z,0.82
2022-11-15T16:59:00.472Z,0.90
2022-11-15T17:01:47.295Z,0.95
2022-11-15T17:04:14.833Z,1.00
2022-11-15T17:06:44.017Z,0.80
2022-11-15T17:09:26.467Z,0.70
2022-11-15T17:11:54.512Z,1.15
2022-11-15T17:14:22.050Z,1.05
2022-11-15T17:16:49.386Z,0.82
2022-11-15T17:19:21.764Z,4.32
2022-11-15T17:21:52.557Z,5.47
2022-11-15T17:24:21.518Z,4.13
2022-11-15T17:26:48.879Z,4.00
2022-11-15T17:29:16.089Z,3.60
2022-11-15T17:31:44.937Z,3.60
2022-11-15T17:34:12.830Z,3.08
2022-11-15T17:36:40.557Z,3.03
2022-11-15T17:39:08.021Z,2.80
2022-11-15T17:41:35.442Z,2.53
2022-11-15T17:44:04.378Z,2.58
2022-11-15T17:46:34.180Z,2.45
2022-11-15T17:49:01.382Z,3.80
2022-11-15T17:51:28.633Z,2.63
2022-11-15T17:53:56.503Z,1.60
2022-11-15T17:56:26.481Z,1.58
2022-11-15T17:58:56.064Z,1.38
2022-11-15T18:01:25.842Z,2.42
2022-11-15T18:03:54.532Z,1.13
2022-11-15T18:06:23.122Z,1.40
2022-11-15T18:08:52.008Z,1.05
2022-11-15T18:11:27.323Z,1.10
2022-11-15T18:13:57.755Z,1.10
2022-11-15T18:16:26.792Z,1.10
2022-11-15T18:18:55.469Z,1.13
2022-11-15T18:21:27.296Z,0.95
2022-11-15T18:23:57.193Z,1.02
2022-11-15T18:26:27.801Z,1.40
2022-11-15T18:29:03.220Z,1.10
2022-11-15T18:31:31.640Z,1.10
2022-11-15T18:34:01.419Z,1.00
2022-11-15T18:36:31.252Z,0.90
2022-11-15T18:39:03.252Z,0.98
2022-11-15T18:41:31.198Z,1.02
2022-11-15T18:44:00.983Z,0.98
2022-11-15T18:46:32.194Z,1.10
2022-11-15T18:51:30.456Z,1.13
2022-11-15T18:54:01.368Z,1.10
2022-11-15T18:56:30.916Z,1.20
2022-11-15T18:59:00.503Z,1.00
2022-11-15T19:01:35.230Z,9.85
2022-11-15T19:04:19.970Z,20.63
2022-11-15T19:06:49.530Z,21.83
2022-11-15T19:09:18.606Z,19.77
2022-11-15T19:11:47.506Z,13.82
2022-11-15T19:14:17.146Z,12.10
2022-11-15T19:16:50.744Z,12.20
2022-11-15T19:19:20.294Z,13.50
2022-11-15T19:21:47.599Z,12.80
2022-11-15T19:24:15.005Z,10.80
2022-11-15T19:26:42.136Z,11.18
2022-11-15T19:29:14.402Z,13.85
2022-11-15T19:31:43.651Z,10.18
2022-11-15T19:34:13.243Z,9.57
2022-11-15T19:36:42.801Z,9.63
2022-11-15T19:39:13.351Z,8.75
2022-11-15T19:41:42.982Z,8.70
2022-11-15T19:44:11.536Z,8.23
2022-11-15T19:46:44.381Z,7.70
2022-11-15T19:49:11.823Z,7.72
2022-11-15T19:51:41.994Z,7.63
2022-11-15T19:54:10.912Z,7.57
2022-11-15T19:56:40.352Z,6.97
2022-11-15T19:59:08.659Z,6.53
2022-11-15T20:01:40.713Z,7.25
2022-11-15T20:04:10.371Z,7.82
2022-11-15T20:06:42.997Z,6.95
2022-11-15T20:09:17.125Z,7.20
2022-11-15T20:11:44.901Z,14.18
2022-11-15T20:14:13.562Z,22.90
2022-11-15T20:16:42.739Z,14.77
2022-11-15T20:19:15.978Z,13.25
2022-11-15T20:21:44.709Z,12.43
2022-11-15T20:24:11.787Z,11.02
2022-11-15T20:26:39.800Z,10.77
2022-11-15T20:29:10.352Z,10.00
2022-11-15T20:31:37.688Z,8.65
2022-11-15T20:34:05.068Z,7.95
2022-11-15T20:36:32.396Z,7.80
2022-11-15T20:39:00.675Z,7.22
2022-11-15T20:41:28.153Z,6.90
2022-11-15T20:43:55.867Z,7.10
2022-11-15T20:46:23.237Z,6.55
2022-11-15T20:48:50.264Z,5.93
2022-11-15T20:51:19.038Z,5.72
2022-11-15T20:53:47.442Z,4.95
2022-11-15T20:56:18.995Z,5.10
2022-11-15T20:58:47.472Z,4.47
2022-11-15T21:01:16.722Z,5.13
2022-11-15T21:03:44.319Z,4.82
2022-11-15T21:06:12.820Z,4.65
2022-11-15T21:08:59.012Z,4.25
2022-11-15T21:11:45.202Z,4.38
2022-11-15T21:14:12.454Z,4.25
2022-11-15T21:16:41.536Z,3.88
2022-11-15T21:19:08.803Z,3.70
2022-11-15T21:21:37.592Z,3.97
2022-11-15T21:24:06.778Z,3.78
2022-11-15T21:26:34.467Z,3.72
2022-11-15T21:29:03.190Z,3.60
2022-11-15T21:31:30.541Z,3.55
2022-11-15T21:33:57.748Z,3.58
2022-11-15T21:36:25.691Z,3.47
2022-11-15T21:38:53.947Z,3.60
2022-11-15T21:41:21.121Z,3.53
2022-11-15T21:43:48.496Z,3.05
2022-11-15T21:46:15.634Z,2.90
2022-11-15T21:48:42.760Z,2.97
2022-11-15T21:51:12.034Z,2.55
2022-11-15T21:53:40.407Z,2.90
2022-11-15T21:56:08.089Z,2.70
2022-11-15T21:58:36.273Z,2.65
2022-11-15T22:01:23.019Z,2.85
2022-11-15T22:03:50.468Z,2.67
2022-11-15T22:06:19.011Z,2.80
2022-11-15T22:08:47.255Z,3.13
2022-11-15T22:11:15.586Z,3.15
2022-11-15T22:13:43.692Z,2.80
2022-11-15T22:16:11.229Z,2.78
2022-11-15T22:18:39.380Z,2.40
2022-11-15T22:21:13.737Z,2.38
2022-11-15T22:23:41.945Z,2.67
2022-11-15T22:26:11.971Z,2.58
2022-11-15T22:28:39.345Z,2.50
2022-11-15T22:31:06.325Z,2.50
2022-11-15T22:33:35.778Z,2.20
2022-11-15T22:36:04.565Z,2.40
2022-11-15T22:38:32.662Z,2.50
2022-11-15T22:41:00.635Z,2.13
2022-11-15T22:43:28.836Z,2.00
2022-11-15T22:45:57.779Z,2.30
2022-11-15T22:48:37.074Z,2.13
2022-11-15T22:51:05.397Z,2.17
2022-11-15T22:53:32.697Z,2.13
2022-11-15T22:56:02.262Z,1.88
2022-11-15T22:58:30.993Z,2.03
2022-11-15T23:01:01.320Z,1.90
2022-11-15T23:03:29.846Z,1.95
2022-11-15T23:06:02.507Z,2.00
2022-11-15T23:08:30.449Z,1.80
2022-11-15T23:11:19.214Z,1.50
2022-11-15T23:13:47.079Z,1.80
2022-11-15T23:16:23.789Z,1.90
2022-11-15T23:18:54.007Z,2.10
2022-11-15T23:21:45.348Z,2.25
2022-11-15T23:24:14.422Z,2.25
2022-11-15T23:26:42.422Z,2.15
2022-11-15T23:29:11.281Z,2.60
2022-11-15T23:32:02.052Z,2.33
2022-11-15T23:36:58.037Z,2.40
2022-11-15T23:39:25.397Z,2.75
2022-11-15T23:41:52.865Z,2.60
2022-11-15T23:44:19.872Z,2.40
2022-11-15T23:46:46.865Z,2.55
2022-11-15T23:49:14.422Z,2.70
2022-11-15T23:51:41.525Z,2.60
2022-11-15T23:54:08.820Z,2.67
2022-11-15T23:56:36.335Z,2.30
2022-11-15T23:59:03.534Z,2.83
